Time;durP1;ratioP1;P1;durP2;ratioP2;P2;SDS_P1;SDS_P2;PMS_P1;PMS_P2;Temp;Humidity;BMP_temperature;BMP_pressure;BME280_temperature;BME280_humidity;BME280_pressure;Samples;Min_cycle;Max_cycle;Signal;HPM_P1;HPM_P2
2022/04/18 00:02:18;;;;;;;;;;;179.70;1664.00;;;;;;5059892;28;20381;-77
2022/04/18 00:04:44;;;;;;;5.82;2.53;;;179.90;1664.00;;;;;;5052557;28;19983;-77
2022/04/18 00:07:10;;;;;;;10.45;2.78;;;179.70;1689.60;;;;;;5052104;28;20036;-77
2022/04/18 00:09:36;;;;;;;;;;;179.60;1689.60;;;;;;5052525;28;20489;-77
2022/04/18 00:12:03;;;;;;;4.93;2.30;;;179.70;1689.60;;;;;;5052024;28;19905;-77
2022/04/18 00:14:29;;;;;;;6.40;2.75;;;179.70;1689.60;;;;;;5052078;28;20036;-78
2022/04/18 00:16:55;;;;;;;;;;;179.60;1689.60;;;;;;5052336;28;20029;-76
2022/04/18 00:19:21;;;;;;;8.40;2.17;;;179.50;1715.20;;;;;;5052102;28;20380;-78
2022/04/18 00:21:47;;;;;;;4.40;2.40;;;179.40;1715.20;;;;;;5051876;28;20437;-76
2022/04/18 00:24:14;;;;;;;;;;;179.40;1715.20;;;;;;5052351;28;20060;-77
2022/04/18 00:26:40;;;;;;;3.45;1.90;;;179.40;1715.20;;;;;;5051463;28;19951;-77
2022/04/18 00:29:06;;;;;;;7.57;2.50;;;179.40;1715.20;;;;;;5051893;28;20036;-77
2022/04/18 00:31:32;;;;;;;;;;;179.50;1740.80;;;;;;5052238;28;20021;-77
2022/04/18 00:33:58;;;;;;;4.65;2.22;;;179.30;1740.80;;;;;;5051978;28;19911;-77
2022/04/18 00:36:23;;;;;;;;;;;179.20;1740.80;;;;;;5052412;28;20373;-77
2022/04/18 00:38:49;;;;;;;5.55;2.10;;;179.40;1740.80;;;;;;5051681;28;20361;-77
2022/04/18 00:41:15;;;;;;;;;;;179.40;1740.80;;;;;;5052497;28;20028;-77
2022/04/18 00:43:45;;;;;;;6.20;1.88;;;179.40;1740.80;;;;;;5051660;28;20399;-77
2022/04/18 00:46:13;;;;;;;3.50;1.90;;;179.40;1740.80;;;;;;5052898;28;20044;-77
2022/04/18 00:48:39;;;;;;;6.03;2.00;;;179.40;1740.80;;;;;;5051423;28;20021;-77
2022/04/18 00:51:07;;;;;;;4.57;2.20;;;179.40;1740.80;;;;;;5053089;28;20029;-76
2022/04/18 00:53:36;;;;;;;3.83;2.05;;;179.30;1740.80;;;;;;5051351;28;20090;-77
2022/04/18 00:56:02;;;;;;;4.97;2.40;;;179.20;1740.80;;;;;;5051482;28;20033;-77
2022/04/18 00:58:28;;;;;;;5.75;2.33;;;179.20;1740.80;;;;;;5051319;28;20432;-77
2022/04/18 01:00:54;;;;;;;;;;;179.20;1740.80;;;;;;5052834;28;20025;-77
2022/04/18 01:03:20;;;;;;;3.92;1.90;;;179.20;1740.80;;;;;;5051413;28;19911;-77
2022/04/18 01:05:47;;;;;;;7.80;2.22;;;154.50;1766.40;;;;;;5051117;28;20032;-76
2022/04/18 01:08:14;;;;;;;4.55;2.33;;;179.40;1766.40;;;;;;5051159;28;20115;-77
2022/04/18 01:10:40;;;;;;;3.88;1.90;;;154.40;1792.00;;;;;;5052314;28;20028;-77
2022/04/18 01:13:06;;;;;;;4.32;2.38;;;154.30;1792.00;;;;;;5051512;28;20033;-77
2022/04/18 01:15:32;;;;;;;;;;;154.20;1792.00;;;;;;5052628;28;20473;-77
2022/04/18 01:17:57;;;;;;;4.65;2.42;;;154.30;1817.60;;;;;;5051229;28;19905;-78
2022/04/18 01:20:34;;;;;;;;;;;154.20;1817.60;;;;;;5052748;28;20025;-77
2022/04/18 01:23:00;;;;;;;4.10;2.88;;;154.10;1817.60;;;;;;5052088;28;20356;-77
2022/04/18 01:30:55;;;;;;;6.55;2.42;;;154.10;1817.60;;;;;;5052455;28;20039;-76
2022/04/18 01:33:20;;;;;;;;;;;154.00;1817.60;;;;;;5051618;28;20041;-76
2022/04/18 01:35:46;;;;;;;6.10;2.90;;;154.10;1817.60;;;;;;5052129;28;19916;-78
2022/04/18 01:38:12;;;;;;;;;;;153.90;1817.60;;;;;;5051486;28;20370;-76
2022/04/18 01:40:39;;;;;;;11.38;2.40;;;153.90;1817.60;;;;;;5050718;28;20331;-77
2022/04/18 01:43:05;;;;;;;8.27;3.10;;;154.00;1843.20;;;;;;5052062;28;20029;-77
2022/04/18 01:45:31;;;;;;;4.53;2.47;;;154.00;1817.60;;;;;;5050767;28;20017;-76
2022/04/18 01:47:57;;;;;;;;;;;153.90;1817.60;;;;;;5050711;28;20095;-77
2022/04/18 01:50:23;;;;;;;6.63;2.67;;;153.90;1817.60;;;;;;5051811;28;19905;-77
2022/04/18 01:52:48;;;;;;;;;;;153.90;1817.60;;;;;;5051798;28;20029;-76
2022/04/18 01:55:14;;;;;;;9.10;3.25;;;153.80;1843.20;;;;;;5050618;28;20364;-77
2022/04/18 01:57:40;;;;;;;;;;;153.80;1843.20;;;;;;5051325;28;20029;-77
2022/04/18 02:00:06;;;;;;;9.70;3.60;;;153.80;1843.20;;;;;;5050936;28;20373;-77
2022/04/18 02:02:31;;;;;;;6.55;3.35;;;153.70;1868.80;;;;;;5050560;28;20025;-76
2022/04/18 02:04:57;;;;;;;;;;;153.80;1868.80;;;;;;5051010;28;20440;-77
2022/04/18 02:07:23;;;;;;;6.70;3.20;;;128.90;1868.80;;;;;;5050573;28;20007;-76
2022/04/18 02:09:48;;;;;;;;;;;128.90;1894.40;;;;;;5052448;28;20021;-76
2022/04/18 02:12:15;;;;;;;7.35;3.45;;;153.60;1894.40;;;;;;5050436;28;19905;-76
2022/04/18 02:14:41;;;;;;;6.88;3.53;;;153.60;1894.40;;;;;;5055563;28;20021;-77
2022/04/18 02:17:06;;;;;;;;;;;153.60;1894.40;;;;;;5054618;28;20520;-77
2022/04/18 02:19:32;;;;;;;4.78;2.63;;;128.90;1894.40;;;;;;5054291;28;19966;-77
2022/04/18 02:21:57;;;;;;;;;;;128.90;1894.40;;;;;;5054461;28;20029;-77
2022/04/18 02:24:23;;;;;;;5.70;2.92;;;128.80;1894.40;;;;;;5054019;28;19943;-77
2022/04/18 02:26:49;;;;;;;;;;;128.90;1894.40;;;;;;5054375;28;20505;-77
2022/04/18 02:29:14;;;;;;;5.45;3.15;;;128.80;1894.40;;;;;;5053981;28;19904;-77
2022/04/18 02:34:24;;;;;;;5.75;3.05;;;128.90;1894.40;;;;;;5055228;28;19973;-77
2022/04/18 02:36:50;;;;;;;;;;;128.70;1920.00;;;;;;5055781;28;20489;-76
2022/04/18 02:39:15;;;;;;;5.68;3.03;;;128.70;1920.00;;;;;;5053800;28;19995;-78
2022/04/18 02:41:41;;;;;;;;;;;128.60;1920.00;;;;;;5054243;28;20054;-77
2022/04/18 02:44:07;;;;;;;5.07;2.58;;;128.60;1920.00;;;;;;5053949;28;20332;-77
2022/04/18 02:46:32;;;;;;;;;;;128.60;1945.60;;;;;;5054026;28;20078;-77
2022/04/18 02:48:58;;;;;;;6.00;2.58;;;128.60;1945.60;;;;;;5053780;28;20349;-76
2022/04/18 02:51:27;;;;;;;;;;;128.50;1945.60;;;;;;5054097;28;20543;-76
2022/04/18 02:53:54;;;;;;;6.60;2.53;;;128.40;1945.60;;;;;;5053802;28;19904;-77
2022/04/18 02:56:20;;;;;;;7.38;3.00;;;128.40;1971.20;;;;;;5053489;28;20072;-75
2022/04/18 02:58:46;;;;;;;6.65;2.58;;;128.40;1971.20;;;;;;5055202;28;20032;-77
2022/04/18 03:01:12;;;;;;;5.30;2.80;;;128.40;1971.20;;;;;;5053398;28;20075;-76
2022/04/18 03:03:38;;;;;;;4.25;2.67;;;128.50;1971.20;;;;;;5053619;28;20469;-77
2022/04/18 03:06:05;;;;;;;;;;;128.60;1971.20;;;;;;5053454;28;20086;-76
2022/04/18 03:08:31;;;;;;;4.63;2.30;;;128.70;1945.60;;;;;;5053233;28;19928;-77
2022/04/18 03:11:03;;;;;;;8.20;3.30;;;128.70;1945.60;;;;;;5053594;28;20029;-77
2022/04/18 03:13:30;;;;;;;5.82;3.33;;;128.70;1945.60;;;;;;5054660;28;20025;-77
2022/04/18 03:15:56;;;;;;;8.43;2.70;;;128.60;1971.20;;;;;;5053700;28;20021;-77
2022/04/18 03:18:22;;;;;;;9.77;2.88;;;128.70;1971.20;;;;;;5053075;28;20120;-76
2022/04/18 03:20:47;;;;;;;;;;;128.70;1971.20;;;;;;5053585;28;20112;-77
2022/04/18 03:23:13;;;;;;;7.50;2.60;;;128.70;1971.20;;;;;;5052939;28;19927;-77
2022/04/18 03:25:39;;;;;;;;;;;128.70;1971.20;;;;;;5053324;28;20024;-77
2022/04/18 03:28:04;;;;;;;8.13;2.17;;;128.80;1971.20;;;;;;5052882;28;20364;-77
2022/04/18 03:30:30;;;;;;;;;;;128.70;1971.20;;;;;;5054722;28;20029;-78
2022/04/18 03:32:56;;;;;;;6.43;3.00;;;128.50;1996.80;;;;;;5053398;28;19912;-77
2022/04/18 03:35:21;;;;;;;;;;;128.60;1996.80;;;;;;5053126;28;20473;-76
2022/04/18 03:40:31;;;;;;;4.45;2.55;;;128.40;1996.80;;;;;;5054077;28;20020;-76
2022/04/18 03:42:56;;;;;;;;;;;128.30;2022.40;;;;;;5052988;28;20033;-76
2022/04/18 03:45:22;;;;;;;4.95;2.88;;;128.40;2022.40;;;;;;5052795;28;20310;-76
2022/04/18 03:47:48;;;;;;;;;;;128.60;1996.80;;;;;;5054182;28;20033;-77
2022/04/18 03:50:14;;;;;;;10.68;2.75;;;128.40;1996.80;;;;;;5054027;28;19947;-77
2022/04/18 03:52:40;;;;;;;5.00;2.70;;;128.10;2048.00;;;;;;5058085;28;20040;-76
2022/04/18 03:55:06;;;;;;;;;;;128.10;2048.00;;;;;;5059548;28;20017;-76
2022/04/18 03:57:31;;;;;;;5.40;2.58;;;128.10;2048.00;;;;;;5056258;28;19912;-77
2022/04/18 03:59:57;;;;;;;;;;;128.30;2048.00;;;;;;5053197;28;20021;-78
2022/04/18 04:02:23;;;;;;;7.50;2.78;;;128.50;2022.40;;;;;;5053431;28;19904;-77
2022/04/18 04:04:48;;;;;;;;;;;128.40;2022.40;;;;;;5052610;28;20016;-76
2022/04/18 04:07:15;;;;;;;8.43;3.00;;;128.00;2048.00;;;;;;5052070;28;20284;-77
2022/04/18 04:09:40;;;;;;;9.80;2.83;;;103.30;2048.00;;;;;;5053627;28;20024;-77
2022/04/18 04:12:06;;;;;;;;;;;103.30;2048.00;;;;;;5053777;28;20025;-78
2022/04/18 04:14:32;;;;;;;7.65;3.28;;;103.30;2073.60;;;;;;5053512;28;20352;-77
2022/04/18 04:16:58;;;;;;;;;;;103.30;2073.60;;;;;;5052354;28;20033;-76
2022/04/18 04:19:24;;;;;;;5.38;2.88;;;128.00;2099.20;;;;;;5051945;28;19904;-76
2022/04/18 04:21:49;;;;;;;;;;;128.00;2073.60;;;;;;5052444;28;20129;-77
2022/04/18 04:24:15;;;;;;;6.55;3.20;;;128.00;2099.20;;;;;;5051773;28;19911;-77
2022/04/18 04:26:41;;;;;;;;;;;128.00;2099.20;;;;;;5053274;28;20045;-77
2022/04/18 04:29:06;;;;;;;8.68;3.30;;;128.00;2099.20;;;;;;5051832;28;19951;-76
2022/04/18 04:31:32;;;;;;;;;;;128.00;2099.20;;;;;;5052552;28;20029;-77
2022/04/18 04:33:58;;;;;;;6.55;3.28;;;128.00;2099.20;;;;;;5051974;28;20452;-76
2022/04/18 04:36:23;;;;;;;;;;;103.30;2099.20;;;;;;5051573;28;20025;-77
2022/04/18 04:38:49;;;;;;;9.82;3.70;;;128.10;2124.80;;;;;;5052616;28;20371;-77
2022/04/18 04:41:16;;;;;;;;;;;128.00;2124.80;;;;;;5053308;28;20404;-77
2022/04/18 04:43:41;;;;;;;12.50;4.22;;;128.00;2124.80;;;;;;5051481;28;19912;-77
2022/04/18 04:46:07;;;;;;;;;;;128.20;2124.80;;;;;;5052983;28;20029;-76
2022/04/18 04:48:33;;;;;;;7.82;3.40;;;128.20;2124.80;;;;;;5051565;28;20272;-77
2022/04/18 04:50:58;;;;;;;;;;;128.20;2124.80;;;;;;5051350;28;20408;-77
2022/04/18 04:53:24;;;;;;;12.13;3.63;;;128.30;2099.20;;;;;;5052718;28;20284;-77
2022/04/18 04:55:50;;;;;;;;;;;128.10;2124.80;;;;;;5052583;28;20069;-77
2022/04/18 04:58:15;;;;;;;14.15;3.75;;;128.30;2124.80;;;;;;5051754;28;19905;-78
2022/04/18 05:00:42;;;;;;;;;;;128.40;2099.20;;;;;;5051870;28;20103;-77
2022/04/18 05:03:08;;;;;;;4.93;2.67;;;128.50;2099.20;;;;;;5051725;28;20384;-77
2022/04/18 05:05:34;;;;;;;;;;;128.50;2099.20;;;;;;5051542;28;20040;-77
2022/04/18 05:08:00;;;;;;;7.50;3.15;;;128.70;2099.20;;;;;;5051493;28;19916;-78
2022/04/18 05:10:26;;;;;;;9.95;3.83;;;128.50;2124.80;;;;;;5050841;28;20033;-76
2022/04/18 05:12:52;;;;;;;;;;;128.70;2124.80;;;;;;5052715;28;20029;-76
2022/04/18 05:15:17;;;;;;;6.70;3.42;;;128.80;2099.20;;;;;;5051303;28;19912;-76
2022/04/18 05:17:43;;;;;;;;;;;128.80;2124.80;;;;;;5052822;28;20453;-77
2022/04/18 05:20:09;;;;;;;54.78;21.55;;;128.90;2124.80;;;;;;5051332;28;19963;-76
2022/04/18 05:22:35;;;;;;;8.95;4.32;;;128.70;2124.80;;;;;;5050706;28;20031;-76
2022/04/18 05:25:00;;;;;;;;;;;128.80;2124.80;;;;;;5051374;28;20116;-76
2022/04/18 05:27:26;;;;;;;5.22;2.83;;;128.90;2124.80;;;;;;5050937;28;20429;-79
2022/04/18 05:29:52;;;;;;;;;;;128.80;2124.80;;;;;;5051568;28;20545;-77
2022/04/18 05:32:17;;;;;;;5.72;3.03;;;153.60;2124.80;;;;;;5052387;28;19905;-78
2022/04/18 05:34:43;;;;;;;;;;;153.60;2124.80;;;;;;5051658;28;20135;-77
2022/04/18 05:37:09;;;;;;;14.00;3.60;;;154.00;2124.80;;;;;;5050761;28;19911;-77
2022/04/18 05:39:35;;;;;;;;;;;153.70;2124.80;;;;;;5051667;28;20029;-76
2022/04/18 05:42:01;;;;;;;10.13;4.40;;;128.90;2124.80;;;;;;5050656;28;19905;-78
2022/04/18 05:44:27;;;;;;;10.32;5.18;;;128.90;2150.40;;;;;;5050711;28;20029;-76
2022/04/18 05:46:53;;;;;;;11.75;5.50;;;128.80;2150.40;;;;;;5050460;28;20138;-78
2022/04/18 05:49:19;;;;;;;;;;;153.80;2124.80;;;;;;5054192;28;20219;-78
2022/04/18 05:51:45;;;;;;;7.85;3.85;;;153.80;2099.20;;;;;;5054566;28;20022;-79
2022/04/18 05:54:10;;;;;;;;;;;153.80;2150.40;;;;;;5055357;28;20035;-79
2022/04/18 05:56:36;;;;;;;8.57;4.28;;;153.90;2124.80;;;;;;5055479;28;19913;-78
2022/04/18 05:59:02;;;;;;;;;;;154.00;2099.20;;;;;;5055495;28;20075;-78
2022/04/18 06:01:29;;;;;;;8.10;3.70;;;154.00;2099.20;;;;;;5055382;28;19905;-80
2022/04/18 06:03:55;;;;;;;7.03;4.20;;;154.10;2099.20;;;;;;5054970;28;20029;-78
2022/04/18 06:06:21;;;;;;;9.50;4.82;;;154.10;2124.80;;;;;;5054988;28;20078;-78
2022/04/18 06:08:47;;;;;;;;;;;154.30;2150.40;;;;;;5055107;28;20029;-79
2022/04/18 06:11:12;;;;;;;7.38;3.80;;;154.30;2124.80;;;;;;5056018;28;19916;-78
2022/04/18 06:13:38;;;;;;;;;;;154.50;2099.20;;;;;;5055268;28;20033;-78
2022/04/18 06:16:05;;;;;;;8.20;4.25;;;154.50;2073.60;;;;;;5054841;28;20007;-77
2022/04/18 06:18:31;;;;;;;7.38;4.18;;;154.40;2099.20;;;;;;5054714;28;20469;-77
2022/04/18 06:20:57;;;;;;;;;;;179.30;2124.80;;;;;;5054673;28;20017;-77
2022/04/18 06:23:23;;;;;;;9.65;4.40;;;179.50;2073.60;;;;;;5054317;28;19905;-76
2022/04/18 06:25:49;;;;;;;;;;;179.70;2048.00;;;;;;5054320;28;20033;-78
2022/04/18 06:28:16;;;;;;;10.10;4.65;;;179.70;2048.00;;;;;;5054477;28;19919;-77
2022/04/18 06:30:42;;;;;;;9.43;4.57;;;179.80;2022.40;;;;;;5038053;28;20059;-78
2022/04/18 06:33:12;;;;;;;10.90;5.57;;;179.90;1996.80;;;;;;5054341;28;20021;-78
2022/04/18 06:35:38;;;;;;;19.67;8.18;;;179.90;2048.00;;;;;;5054385;28;20029;-78
2022/04/18 06:38:05;;;;;;;15.05;5.50;;;180.00;2022.40;;;;;;5054561;28;20021;-79
2022/04/18 06:40:31;;;;;;;14.32;5.38;;;204.80;1996.80;;;;;;5054189;28;20037;-78
2022/04/18 06:42:57;;;;;;;;;;;205.10;1996.80;;;;;;5054057;28;20029;-78
2022/04/18 06:45:24;;;;;;;6.82;4.00;;;205.10;1971.20;;;;;;5053858;28;19948;-79
2022/04/18 06:47:49;;;;;;;12.15;4.72;;;204.90;1971.20;;;;;;5053727;28;20473;-77
2022/04/18 06:50:15;;;;;;;;;;;205.10;1971.20;;;;;;5053716;28;20036;-77
2022/04/18 06:52:44;;;;;;;11.73;5.13;;;205.30;1945.60;;;;;;5053281;28;20400;-75
2022/04/18 06:55:10;;;;;;;12.07;5.47;;;205.40;1945.60;;;;;;5054309;28;20017;-76
2022/04/18 06:57:36;;;;;;;13.30;7.00;;;205.40;1945.60;;;;;;5053350;28;20049;-77
2022/04/18 07:00:05;;;;;;;;;;;205.50;1945.60;;;;;;5054543;28;20025;-77
2022/04/18 07:02:31;;;;;;;9.93;5.75;;;205.60;1945.60;;;;;;5053632;28;20039;-77
2022/04/18 07:04:57;;;;;;;13.63;5.43;;;205.70;1945.60;;;;;;5054630;28;20029;-78
2022/04/18 07:07:22;;;;;;;;;;;230.50;1894.40;;;;;;5053325;28;20048;-77
2022/04/18 07:09:48;;;;;;;7.30;4.70;;;230.60;1920.00;;;;;;5053138;28;19915;-78
2022/04/18 07:12:14;;;;;;;;;;;230.90;1894.40;;;;;;5055348;28;20025;-79
2022/04/18 07:14:39;;;;;;;9.50;4.70;;;230.90;1894.40;;;;;;5053472;28;19909;-77
2022/04/18 07:17:06;;;;;;;;;;;231.00;1920.00;;;;;;5055249;28;20013;-77
2022/04/18 07:19:33;;;;;;;5.63;3.53;;;231.30;1894.40;;;;;;5053622;28;19908;-80
2022/04/18 07:21:59;;;;;;;12.77;5.10;;;256.00;1843.20;;;;;;5053430;28;20028;-77
2022/04/18 07:24:25;;;;;;;12.95;5.40;;;256.00;1843.20;;;;;;5053408;28;20473;-78
2022/04/18 07:26:51;;;;;;;10.68;4.97;;;256.20;1843.20;;;;;;5053146;28;20119;-79
2022/04/18 07:29:17;;;;;;;7.15;4.45;;;256.40;1817.60;;;;;;5053337;28;20025;-78
2022/04/18 07:31:43;;;;;;;12.50;4.60;;;256.40;1817.60;;;;;;5053269;28;20083;-77
2022/04/18 07:34:09;;;;;;;11.27;6.20;;;256.50;1792.00;;;;;;5053111;28;20465;-77
2022/04/18 07:36:35;;;;;;;30.88;17.20;;;256.50;1817.60;;;;;;5052935;28;20029;-78
2022/04/18 07:39:00;;;;;;;;;;;256.90;1817.60;;;;;;5053648;28;20021;-77
2022/04/18 07:41:28;;;;;;;16.63;8.32;;;281.60;1792.00;;;;;;5052886;28;20284;-76
2022/04/18 07:43:55;;;;;;;10.50;5.35;;;281.70;1792.00;;;;;;5054191;28;20093;-76
2022/04/18 07:46:21;;;;;;;7.88;4.70;;;282.00;1766.40;;;;;;5052354;28;20096;-76
2022/04/18 07:48:51;;;;;;;6.57;3.60;;;282.00;1740.80;;;;;;5054625;28;20412;-76
2022/04/18 07:51:39;;;;;;;9.77;6.10;;;282.20;1715.20;;;;;;5057003;28;20040;-76
2022/04/18 07:54:07;;;;;;;8.68;4.40;;;282.30;1715.20;;;;;;5057583;28;20051;-76
2022/04/18 07:56:33;;;;;;;7.90;4.45;;;307.20;1740.80;;;;;;5053133;28;20037;-76
2022/04/18 07:58:59;;;;;;;8.02;4.13;;;282.50;1689.60;;;;;;5053997;28;20028;-76
2022/04/18 08:01:25;;;;;;;9.52;4.22;;;307.30;1715.20;;;;;;5052581;28;20029;-76
2022/04/18 08:03:51;;;;;;;;;;;307.30;1715.20;;;;;;5053807;28;20025;-76
2022/04/18 08:06:17;;;;;;;8.02;4.13;;;307.50;1664.00;;;;;;5053375;28;19920;-78
2022/04/18 08:08:43;;;;;;;6.68;3.65;;;307.60;1689.60;;;;;;5037144;28;20021;-79
2022/04/18 08:11:11;;;;;;;6.25;3.85;;;307.60;1664.00;;;;;;5031326;28;20025;-77
2022/04/18 08:13:44;;;;;;;6.35;4.20;;;307.60;1664.00;;;;;;5032367;28;20509;-75
2022/04/18 08:16:11;;;;;;;6.03;3.33;;;307.60;1638.40;;;;;;5033271;28;20033;-78
2022/04/18 08:18:39;;;;;;;8.15;4.07;;;307.70;1638.40;;;;;;5032461;28;20453;-77
2022/04/18 08:21:06;;;;;;;8.27;3.88;;;307.70;1612.80;;;;;;5032385;28;20029;-77
2022/04/18 08:23:32;;;;;;;8.43;3.95;;;307.80;1612.80;;;;;;5032325;28;20029;-76
2022/04/18 08:25:59;;;;;;;4.97;3.13;;;307.80;1587.20;;;;;;5031577;28;20433;-76
2022/04/18 08:28:26;;;;;;;7.47;3.15;;;308.00;1561.60;;;;;;5031785;28;20040;-75
2022/04/18 08:30:52;;;;;;;4.88;3.03;;;308.00;1536.00;;;;;;5031897;28;20025;-75
2022/04/18 08:33:18;;;;;;;6.40;3.60;;;307.90;1561.60;;;;;;5031693;28;20116;-76
2022/04/18 08:35:43;;;;;;;4.57;2.75;;;308.10;1536.00;;;;;;5033178;28;20097;-77
2022/04/18 08:38:09;;;;;;;;;;;308.10;1510.40;;;;;;5033387;28;20030;-77
2022/04/18 08:40:37;;;;;;;6.15;3.10;;;332.80;1536.00;;;;;;5032226;28;20334;-76
2022/04/18 08:43:03;;;;;;;5.20;3.33;;;308.10;1459.20;;;;;;5032727;28;20520;-76
2022/04/18 08:45:29;;;;;;;7.00;3.88;;;308.00;1459.20;;;;;;5032763;28;20026;-76
2022/04/18 08:53:31;;;;;;;3.80;2.40;;;308.10;1459.20;;;;;;5052683;28;20102;-76
2022/04/18 08:55:59;;;;;;;5.93;3.25;;;332.80;1459.20;;;;;;5052660;28;20039;-77
2022/04/18 08:58:28;;;;;;;5.38;3.00;;;308.10;1433.60;;;;;;5052467;28;20035;-75
2022/04/18 09:00:56;;;;;;;4.18;2.55;;;332.80;1408.00;;;;;;5052937;28;20470;-78
2022/04/18 09:03:22;;;;;;;7.05;2.88;;;332.90;1433.60;;;;;;5051311;28;20465;-80
2022/04/18 09:05:48;;;;;;;10.45;2.92;;;332.90;1433.60;;;;;;5051788;28;20050;-77
2022/04/18 09:08:14;;;;;;;4.22;2.53;;;308.10;1382.40;;;;;;5051518;28;20037;-80
2022/04/18 09:10:41;;;;;;;5.35;3.05;;;332.80;1382.40;;;;;;5053279;28;20028;-79
2022/04/18 09:13:12;;;;;;;4.47;2.80;;;332.80;1382.40;;;;;;5052132;28;20032;-81
2022/04/18 09:15:46;;;;;;;5.70;3.17;;;332.80;1408.00;;;;;;5051764;28;20533;-79
2022/04/18 09:18:23;;;;;;;5.88;3.20;;;308.10;1356.80;;;;;;5051445;28;20558;-78
2022/04/18 09:20:54;;;;;;;11.43;5.07;;;332.80;1382.40;;;;;;5051050;28;20108;-79
2022/04/18 09:23:28;;;;;;;5.03;3.40;;;332.80;1382.40;;;;;;5050842;28;20114;-78
2022/04/18 09:25:55;;;;;;;4.65;3.00;;;308.10;1356.80;;;;;;5050860;28;20081;-80
2022/04/18 09:28:38;;;;;;;4.05;2.70;;;332.90;1356.80;;;;;;5050831;28;20114;-78
2022/04/18 09:31:08;;;;;;;3.30;2.08;;;333.20;1382.40;;;;;;5052441;28;20126;-78
2022/04/18 09:33:46;;;;;;;5.38;2.50;;;333.40;1331.20;;;;;;5052327;28;20118;-77
2022/04/18 09:36:17;;;;;;;5.00;2.53;;;333.50;1382.40;;;;;;5052108;28;20029;-76
2022/04/18 09:38:48;;;;;;;6.35;2.67;;;333.60;1382.40;;;;;;5052051;28;20052;-78
2022/04/18 09:41:16;;;;;;;7.45;3.28;;;333.70;1356.80;;;;;;5052111;28;20036;-77
2022/04/18 09:43:48;;;;;;;3.97;2.33;;;358.40;1356.80;;;;;;5050237;28;20481;-76
2022/04/18 09:46:15;;;;;;;5.35;2.65;;;333.60;1356.80;;;;;;5049021;28;20422;-76
2022/04/18 09:48:42;;;;;;;3.67;2.17;;;333.50;1356.80;;;;;;5051614;28;20025;-76
2022/04/18 09:51:25;;;;;;;4.47;2.92;;;333.50;1356.80;;;;;;5051085;28;20029;-77
2022/04/18 09:53:53;;;;;;;7.95;2.38;;;333.40;1356.80;;;;;;5050653;28;20025;-77
2022/04/18 09:56:21;;;;;;;3.55;2.03;;;333.30;1305.60;;;;;;5054085;28;20060;-80
2022/04/18 09:58:47;;;;;;;6.65;3.92;;;333.30;1305.60;;;;;;5055904;28;20025;-78
2022/04/18 10:01:14;;;;;;;5.15;3.28;;;333.30;1305.60;;;;;;5051087;28;20029;-80
2022/04/18 10:03:41;;;;;;;5.85;2.30;;;333.30;1305.60;;;;;;5051345;28;20187;-80
2022/04/18 10:06:08;;;;;;;8.05;4.80;;;333.20;1280.00;;;;;;5050629;28;20021;-76
2022/04/18 10:08:35;;;;;;;7.75;3.05;;;333.20;1305.60;;;;;;5051799;28;20021;-77
2022/04/18 10:11:03;;;;;;;9.65;5.53;;;333.40;1280.00;;;;;;5051030;28;20037;-74
2022/04/18 10:13:30;;;;;;;3.25;1.92;;;358.50;1228.80;;;;;;5050948;28;20127;-81
2022/04/18 10:15:58;;;;;;;3.75;1.67;;;359.00;1203.20;;;;;;5050998;28;20355;-79
2022/04/18 10:18:24;;;;;;;6.90;1.65;;;384.20;1203.20;;;;;;5050529;28;20473;-79
2022/04/18 10:20:57;;;;;;;15.93;9.38;;;384.50;1126.40;;;;;;5051672;28;20033;-78
2022/04/18 10:23:50;;;;;;;5.35;2.63;;;384.40;1049.60;;;;;;5050201;28;20033;-77
2022/04/18 10:26:57;;;;;;;9.18;4.78;;;384.60;1049.60;;;;;;5050002;28;20057;-77
2022/04/18 10:29:30;;;;;;;8.98;1.98;;;384.80;1049.60;;;;;;5029623;28;20045;-80
2022/04/18 10:32:00;;;;;;;4.63;2.00;;;384.60;1049.60;;;;;;5030176;28;20516;-78
2022/04/18 10:34:31;;;;;;;5.03;1.98;;;384.50;1075.20;;;;;;5014258;28;20492;-77
2022/04/18 10:37:00;;;;;;;5.55;1.58;;;384.20;1049.60;;;;;;5033761;28;20025;-86
2022/04/18 10:39:36;;;;;;;4.05;1.88;;;359.30;1049.60;;;;;;5016608;28;20034;-82
2022/04/18 10:42:33;;;;;;;2.38;1.50;;;384.00;1049.60;;;;;;5020673;28;20030;-80
2022/04/18 10:45:11;;;;;;;3.50;2.13;;;359.30;1075.20;;;;;;4997824;28;20046;-79
2022/04/18 10:47:58;;;;;;;3.83;1.73;;;359.20;1075.20;;;;;;4997405;28;20096;-79
2022/04/18 10:50:50;;;;;;;2.33;1.55;;;359.00;1049.60;;;;;;4997059;28;20034;-79
2022/04/18 10:53:18;;;;;;;8.73;2.67;;;359.20;1075.20;;;;;;5013626;28;20565;-81
2022/04/18 10:55:56;;;;;;;3.45;2.05;;;384.10;1024.00;;;;;;4996903;28;20038;-78
2022/04/18 10:58:27;;;;;;;3.40;1.70;;;384.30;1024.00;;;;;;4997283;28;20061;-80
2022/04/18 11:00:58;;;;;;;4.72;1.33;;;384.20;998.40;;;;;;4997210;28;20060;-79
2022/04/18 11:03:38;;;;;;;4.47;1.30;;;384.20;1024.00;;;;;;5013710;28;20025;-80
2022/04/18 11:06:36;;;;;;;2.13;1.30;;;384.40;1024.00;;;;;;5032039;28;20041;-83
2022/04/18 11:09:08;;;;;;;3.55;1.80;;;384.60;998.40;;;;;;5034705;28;20029;-79
2022/04/18 11:11:35;;;;;;;2.83;1.40;;;384.10;998.40;;;;;;5035625;28;20047;-82
2022/04/18 11:14:01;;;;;;;3.65;1.67;;;359.30;998.40;;;;;;5034083;28;20461;-80
2022/04/18 11:16:27;;;;;;;3.90;1.90;;;359.10;998.40;;;;;;5035169;28;20037;-79
2022/04/18 11:19:09;;;;;;;2.17;1.40;;;359.00;998.40;;;;;;5034673;28;20096;-79
2022/04/18 11:21:57;;;;;;;2.60;1.70;;;359.00;1024.00;;;;;;5033367;28;20042;-78
2022/04/18 11:24:51;;;;;;;5.75;1.48;;;359.20;1024.00;;;;;;5034552;28;20363;-78
2022/04/18 11:27:36;;;;;;;7.97;2.65;;;359.20;1049.60;;;;;;5033133;28;20140;-80
2022/04/18 11:30:13;;;;;;;7.38;2.15;;;359.10;1049.60;;;;;;5033026;28;20022;-76
2022/04/18 11:32:41;;;;;;;2.35;1.27;;;359.00;1049.60;;;;;;5033088;28;20021;-78
2022/04/18 11:35:09;;;;;;;5.05;1.80;;;359.00;1075.20;;;;;;5034410;28;20133;-77
2022/04/18 11:37:43;;;;;;;8.25;2.20;;;358.90;1126.40;;;;;;5032973;28;20033;-77
2022/04/18 11:40:14;;;;;;;7.82;2.30;;;358.80;1126.40;;;;;;5039758;28;20021;-78
2022/04/18 11:42:41;;;;;;;10.55;4.18;;;358.40;1152.00;;;;;;5052673;28;20029;-78
2022/04/18 11:45:24;;;;;;;5.72;2.00;;;333.70;1177.60;;;;;;5052324;28;20078;-78
2022/04/18 11:47:50;;;;;;;6.00;2.85;;;333.40;1152.00;;;;;;5053857;28;20040;-78
2022/04/18 11:50:23;;;;;;;6.18;3.13;;;333.30;1177.60;;;;;;5052173;28;20040;-78
2022/04/18 11:53:03;;;;;;;12.77;3.15;;;333.40;1177.60;;;;;;5052661;28;20069;-77
2022/04/18 11:55:29;;;;;;;6.38;2.35;;;333.40;1177.60;;;;;;5052794;28;20029;-80
2022/04/18 11:57:55;;;;;;;8.45;2.42;;;333.40;1152.00;;;;;;5055320;28;20017;-79
2022/04/18 12:08:47;;;;;;;5.72;2.47;;;358.40;1152.00;;;;;;5053828;28;20052;-78
2022/04/18 12:11:13;;;;;;;6.93;2.13;;;333.60;1126.40;;;;;;5053582;28;20028;-78
2022/04/18 12:13:45;;;;;;;8.10;2.03;;;333.70;1152.00;;;;;;5053390;28;20052;-78
2022/04/18 12:16:12;;;;;;;7.15;2.97;;;358.50;1152.00;;;;;;5053713;28;20029;-78
2022/04/18 12:18:38;;;;;;;3.35;1.63;;;358.60;1152.00;;;;;;5051828;28;20033;-78
2022/04/18 12:21:04;;;;;;;4.65;2.35;;;358.80;1152.00;;;;;;5052193;28;20017;-78
2022/04/18 12:23:30;;;;;;;9.02;3.30;;;359.20;1126.40;;;;;;5051780;28;20021;-78
2022/04/18 12:26:01;;;;;;;8.02;3.92;;;384.40;1126.40;;;;;;5051871;28;20037;-78
2022/04/18 12:28:30;;;;;;;7.53;3.97;;;384.50;1100.80;;;;;;5051908;28;20037;-78
2022/04/18 12:30:57;;;;;;;8.73;2.55;;;384.50;1075.20;;;;;;5053174;28;20048;-78
2022/04/18 12:33:24;;;;;;;3.80;2.20;;;384.40;1075.20;;;;;;5053226;28;20032;-78
2022/04/18 12:35:52;;;;;;;11.30;4.40;;;384.40;1100.80;;;;;;5053011;28;20471;-78
2022/04/18 12:38:39;;;;;;;13.32;6.95;;;384.60;1075.20;;;;;;5053211;28;20017;-78
2022/04/18 12:41:05;;;;;;;22.38;12.25;;;384.90;1075.20;;;;;;5051396;28;20370;-78
2022/04/18 12:43:33;;;;;;;3.33;1.63;;;384.90;1075.20;;;;;;5052766;28;20032;-78
2022/04/18 12:46:00;;;;;;;3.47;1.70;;;384.40;1075.20;;;;;;5052283;28;20052;-78
2022/04/18 12:48:31;;;;;;;9.23;1.80;;;384.30;1075.20;;;;;;5052760;28;20462;-78
2022/04/18 12:51:06;;;;;;;4.50;2.15;;;384.10;1100.80;;;;;;5052097;28;20070;-78
2022/04/18 12:53:52;;;;;;;5.30;2.55;;;384.40;1075.20;;;;;;5052763;28;20021;-77
2022/04/18 12:56:20;;;;;;;17.55;10.55;;;384.20;1049.60;;;;;;5051320;28;20029;-84
2022/04/18 12:58:52;;;;;;;5.65;3.05;;;384.20;1049.60;;;;;;5051993;28;20029;-79
2022/04/18 13:01:25;;;;;;;9.57;4.10;;;384.20;1049.60;;;;;;5051036;28;20025;-77
2022/04/18 13:03:52;;;;;;;5.60;2.10;;;359.30;1075.20;;;;;;5047150;28;20045;-77